Terminal Aerodrome Forecast
Issued by NWS Goodland, KS

Home | Current Version | Previous Version | Text Only | Print | Product List | Glossary On
Versions: 1 2 3 4 5 6 7 8 9 10 11 12 13 14 15 16 17 18 19 20
000
FTUS43 KGLD 202320
TAFGLD
TAF
KGLD 202320Z 2100/2124 02011KT P6SM VCTS SCT090CB BKN150
     FM210400 27010KT P6SM SCT150
     FM211000 33008KT P6SM SCT250
     FM211600 36006KT P6SM SCT100=

USA.gov is the U.S. government's official web portal to all federal, state and local government web resources and services.